sensor_id;sensor_type;location;lat;lon;timestamp;pressure;altitude;pressure_sealevel;temperature;humidity
41703;BME280;861;48.808;9.006;2022-08-11T00:01:55;97532.56;;;21.98;45.92
41703;BME280;861;48.808;9.006;2022-08-11T00:04:34;97525.25;;;21.91;45.81
41703;BME280;861;48.808;9.006;2022-08-11T00:07:05;97528.72;;;21.83;45.47
41703;BME280;861;48.808;9.006;2022-08-11T00:09:37;97521.06;;;21.87;45.83
41703;BME280;861;48.808;9.006;2022-08-11T00:12:16;97525.19;;;21.82;46.19
41703;BME280;861;48.808;9.006;2022-08-11T00:14:45;97531.81;;;21.72;46.29
41703;BME280;861;48.808;9.006;2022-08-11T00:17:31;97529.19;;;21.56;46.94
41703;BME280;861;48.808;9.006;2022-08-11T00:20:35;97522.31;;;21.48;47.51
41703;BME280;861;48.808;9.006;2022-08-11T00:23:19;97525.41;;;21.50;46.87
41703;BME280;861;48.808;9.006;2022-08-11T00:25:51;97522.09;;;21.55;47.47
41703;BME280;861;48.808;9.006;2022-08-11T00:28:32;97527.09;;;21.48;47.37
41703;BME280;861;48.808;9.006;2022-08-11T00:31:21;97525.53;;;21.47;47.63
41703;BME280;861;48.808;9.006;2022-08-11T00:34:05;97530.19;;;21.37;47.90
41703;BME280;861;48.808;9.006;2022-08-11T00:37:00;97537.19;;;21.29;47.62
41703;BME280;861;48.808;9.006;2022-08-11T00:39:34;97539.75;;;21.23;47.49
41703;BME280;861;48.808;9.006;2022-08-11T00:47:26;97533.94;;;21.05;47.62
41703;BME280;861;48.808;9.006;2022-08-11T00:50:08;97529.09;;;20.97;47.03
41703;BME280;861;48.808;9.006;2022-08-11T00:53:43;97526.84;;;20.92;47.29
41703;BME280;861;48.808;9.006;2022-08-11T01:00:20;97518.41;;;20.83;48.32
41703;BME280;861;48.808;9.006;2022-08-11T01:06:49;97525.56;;;20.68;48.58
41703;BME280;861;48.808;9.006;2022-08-11T01:21:45;97530.81;;;20.37;49.01
41703;BME280;861;48.808;9.006;2022-08-11T01:25:41;97519.41;;;20.35;49.35
41703;BME280;861;48.808;9.006;2022-08-11T01:39:52;97518.78;;;20.15;50.03
41703;BME280;861;48.808;9.006;2022-08-11T01:43:23;97512.53;;;20.11;49.58
41703;BME280;861;48.808;9.006;2022-08-11T01:51:00;97518.28;;;19.88;50.43
41703;BME280;861;48.808;9.006;2022-08-11T01:58:59;97522.38;;;19.84;49.50
41703;BME280;861;48.808;9.006;2022-08-11T02:01:53;97508.97;;;19.82;49.80
41703;BME280;861;48.808;9.006;2022-08-11T02:04:38;97507.03;;;19.66;50.19
41703;BME280;861;48.808;9.006;2022-08-11T02:10:48;97499.06;;;19.68;50.72
41703;BME280;861;48.808;9.006;2022-08-11T02:14:26;97508.22;;;19.65;50.66
41703;BME280;861;48.808;9.006;2022-08-11T02:17:40;97516.25;;;19.60;50.50
41703;BME280;861;48.808;9.006;2022-08-11T02:20:36;97504.84;;;19.58;50.61
41703;BME280;861;48.808;9.006;2022-08-11T02:23:58;97499.34;;;19.58;50.71
41703;BME280;861;48.808;9.006;2022-08-11T02:26:48;97501.22;;;19.61;50.51
41703;BME280;861;48.808;9.006;2022-08-11T02:29:55;97507.09;;;19.63;50.50
41703;BME280;861;48.808;9.006;2022-08-11T02:33:20;97496.28;;;19.68;50.60
41703;BME280;861;48.808;9.006;2022-08-11T02:36:11;97499.25;;;19.61;50.62
41703;BME280;861;48.808;9.006;2022-08-11T02:39:13;97498.69;;;19.83;50.22
41703;BME280;861;48.808;9.006;2022-08-11T02:42:26;97500.56;;;19.86;50.51
41703;BME280;861;48.808;9.006;2022-08-11T02:48:30;97498.47;;;20.06;49.67
41703;BME280;861;48.808;9.006;2022-08-11T02:52:06;97500.38;;;20.09;49.52
41703;BME280;861;48.808;9.006;2022-08-11T03:01:14;97500.97;;;20.16;50.78
41703;BME280;861;48.808;9.006;2022-08-11T03:04:08;97501.69;;;20.04;50.67
41703;BME280;861;48.808;9.006;2022-08-11T03:10:05;97500.25;;;19.84;50.11
41703;BME280;861;48.808;9.006;2022-08-11T03:13:15;97504.06;;;19.57;50.08
41703;BME280;861;48.808;9.006;2022-08-11T03:16:34;97501.50;;;19.50;50.46
41703;BME280;861;48.808;9.006;2022-08-11T03:29:22;97511.59;;;19.41;52.56
41703;BME280;861;48.808;9.006;2022-08-11T03:35:46;97517.38;;;19.46;52.20
41703;BME280;861;48.808;9.006;2022-08-11T03:41:50;97523.50;;;19.38;52.30
41703;BME280;861;48.808;9.006;2022-08-11T03:51:18;97527.78;;;19.23;53.24
41703;BME280;861;48.808;9.006;2022-08-11T04:04:12;97526.88;;;18.94;54.30
41703;BME280;861;48.808;9.006;2022-08-11T04:07:14;97531.06;;;18.82;53.32
41703;BME280;861;48.808;9.006;2022-08-11T04:11:05;97531.31;;;18.72;53.10
41703;BME280;861;48.808;9.006;2022-08-11T04:31:10;97524.56;;;18.14;55.61
41703;BME280;861;48.808;9.006;2022-08-11T04:34:38;97518.34;;;18.29;55.72
41703;BME280;861;48.808;9.006;2022-08-11T04:59:39;97526.81;;;18.19;56.42
41703;BME280;861;48.808;9.006;2022-08-11T05:17:20;97546.56;;;18.37;58.39
41703;BME280;861;48.808;9.006;2022-08-11T05:20:12;97532.00;;;18.37;58.08
41703;BME280;861;48.808;9.006;2022-08-11T05:23:07;97541.81;;;18.38;58.28
41703;BME280;861;48.808;9.006;2022-08-11T05:26:01;97534.28;;;18.42;57.34
41703;BME280;861;48.808;9.006;2022-08-11T05:29:00;97538.78;;;18.32;56.94
41703;BME280;861;48.808;9.006;2022-08-11T05:32:00;97535.25;;;18.31;56.96
41703;BME280;861;48.808;9.006;2022-08-11T05:34:54;97539.97;;;18.31;57.48
41703;BME280;861;48.808;9.006;2022-08-11T05:37:43;97539.22;;;18.50;57.26
41703;BME280;861;48.808;9.006;2022-08-11T05:40:31;97539.22;;;18.50;57.73
41703;BME280;861;48.808;9.006;2022-08-11T05:43:18;97546.16;;;18.58;56.45
41703;BME280;861;48.808;9.006;2022-08-11T05:46:07;97545.97;;;18.69;56.87
41703;BME280;861;48.808;9.006;2022-08-11T05:48:53;97543.34;;;18.62;56.56
41703;BME280;861;48.808;9.006;2022-08-11T05:51:43;97546.66;;;18.53;57.42
41703;BME280;861;48.808;9.006;2022-08-11T05:54:30;97543.81;;;18.57;57.49
41703;BME280;861;48.808;9.006;2022-08-11T05:57:27;97546.28;;;18.71;57.25
41703;BME280;861;48.808;9.006;2022-08-11T06:00:06;97543.66;;;18.83;56.79
41703;BME280;861;48.808;9.006;2022-08-11T06:02:56;97543.56;;;19.06;56.11
41703;BME280;861;48.808;9.006;2022-08-11T06:05:39;97545.28;;;19.16;56.42
41703;BME280;861;48.808;9.006;2022-08-11T06:08:09;97545.56;;;19.22;55.90
41703;BME280;861;48.808;9.006;2022-08-11T06:10:44;97543.44;;;19.29;55.46
41703;BME280;861;48.808;9.006;2022-08-11T06:13:17;97543.59;;;19.38;54.84
41703;BME280;861;48.808;9.006;2022-08-11T06:15:51;97539.03;;;19.48;54.79
41703;BME280;861;48.808;9.006;2022-08-11T06:18:22;97543.09;;;19.59;54.13
41703;BME280;861;48.808;9.006;2022-08-11T06:20:55;97541.53;;;19.74;54.22
41703;BME280;861;48.808;9.006;2022-08-11T06:23:31;97546.78;;;20.01;53.19
41703;BME280;861;48.808;9.006;2022-08-11T06:26:00;97539.81;;;20.25;53.28
41703;BME280;861;48.808;9.006;2022-08-11T06:28:40;97541.97;;;20.34;52.37
41703;BME280;861;48.808;9.006;2022-08-11T06:31:20;97541.56;;;20.48;52.37
41703;BME280;861;48.808;9.006;2022-08-11T06:34:32;97537.06;;;20.54;52.66
41703;BME280;861;48.808;9.006;2022-08-11T06:41:12;97536.19;;;20.69;52.48
41703;BME280;861;48.808;9.006;2022-08-11T06:46:47;97537.22;;;20.88;51.55
41703;BME280;861;48.808;9.006;2022-08-11T06:49:30;97537.41;;;20.97;52.14
41703;BME280;861;48.808;9.006;2022-08-11T06:52:28;97542.59;;;21.20;50.86
41703;BME280;861;48.808;9.006;2022-08-11T06:55:13;97535.09;;;21.33;50.85
41703;BME280;861;48.808;9.006;2022-08-11T06:58:18;97533.84;;;21.47;50.93
41703;BME280;861;48.808;9.006;2022-08-11T07:01:18;97541.25;;;21.62;50.52
41703;BME280;861;48.808;9.006;2022-08-11T07:04:07;97541.97;;;22.00;49.82
41703;BME280;861;48.808;9.006;2022-08-11T07:06:54;97544.56;;;21.95;49.94
41703;BME280;861;48.808;9.006;2022-08-11T07:10:22;97548.72;;;22.12;49.33
41703;BME280;861;48.808;9.006;2022-08-11T07:13:15;97541.97;;;22.34;48.94
41703;BME280;861;48.808;9.006;2022-08-11T07:16:05;97543.59;;;22.44;48.63
41703;BME280;861;48.808;9.006;2022-08-11T07:18:36;97552.47;;;22.52;48.17
41703;BME280;861;48.808;9.006;2022-08-11T07:21:34;97543.41;;;22.82;47.62
41703;BME280;861;48.808;9.006;2022-08-11T07:24:31;97531.91;;;22.93;47.78
41703;BME280;861;48.808;9.006;2022-08-11T07:27:40;97541.06;;;23.02;47.44
41703;BME280;861;48.808;9.006;2022-08-11T07:30:31;97540.28;;;23.02;48.28
41703;BME280;861;48.808;9.006;2022-08-11T07:33:04;97540.59;;;23.25;47.17
41703;BME280;861;48.808;9.006;2022-08-11T07:35:51;97534.97;;;23.16;47.91
41703;BME280;861;48.808;9.006;2022-08-11T07:38:51;97530.59;;;23.37;46.86
41703;BME280;861;48.808;9.006;2022-08-11T07:41:24;97529.84;;;23.45;46.83
41703;BME280;861;48.808;9.006;2022-08-11T07:43:59;97523.22;;;23.43;47.07
41703;BME280;861;48.808;9.006;2022-08-11T07:46:48;97521.06;;;23.56;46.98
41703;BME280;861;48.808;9.006;2022-08-11T07:49:38;97515.88;;;23.94;45.95
41703;BME280;861;48.808;9.006;2022-08-11T07:52:35;97525.38;;;24.05;45.47
41703;BME280;861;48.808;9.006;2022-08-11T07:55:12;97526.16;;;24.15;45.64
41703;BME280;861;48.808;9.006;2022-08-11T07:57:46;97511.63;;;24.29;45.98
41703;BME280;861;48.808;9.006;2022-08-11T08:00:47;97518.22;;;24.59;44.88
41703;BME280;861;48.808;9.006;2022-08-11T08:03:42;97510.81;;;24.56;44.90
41703;BME280;861;48.808;9.006;2022-08-11T08:06:32;97521.94;;;24.65;44.90
41703;BME280;861;48.808;9.006;2022-08-11T08:09:21;97510.16;;;24.88;44.33
41703;BME280;861;48.808;9.006;2022-08-11T08:12:09;97515.75;;;24.88;44.52
41703;BME280;861;48.808;9.006;2022-08-11T08:14:57;97513.06;;;25.02;43.79
41703;BME280;861;48.808;9.006;2022-08-11T08:17:46;97511.81;;;25.03;44.08
41703;BME280;861;48.808;9.006;2022-08-11T08:20:37;97523.59;;;24.98;44.59
41703;BME280;861;48.808;9.006;2022-08-11T08:23:07;97528.66;;;25.18;43.81
41703;BME280;861;48.808;9.006;2022-08-11T08:25:44;97525.06;;;25.35;43.46
41703;BME280;861;48.808;9.006;2022-08-11T08:28:20;97521.31;;;25.38;43.23
41703;BME280;861;48.808;9.006;2022-08-11T08:30:50;97519.25;;;25.48;43.15
41703;BME280;861;48.808;9.006;2022-08-11T08:33:27;97523.06;;;25.59;42.80
41703;BME280;861;48.808;9.006;2022-08-11T08:36:03;97526.78;;;25.56;42.03
41703;BME280;861;48.808;9.006;2022-08-11T08:38:49;97531.59;;;25.56;42.51
41703;BME280;861;48.808;9.006;2022-08-11T08:41:33;97516.06;;;25.64;42.26
41703;BME280;861;48.808;9.006;2022-08-11T08:44:10;97520.91;;;25.87;41.64
41703;BME280;861;48.808;9.006;2022-08-11T08:46:52;97521.56;;;26.06;41.38
41703;BME280;861;48.808;9.006;2022-08-11T08:49:43;97516.88;;;26.12;40.89
41703;BME280;861;48.808;9.006;2022-08-11T08:52:28;97514.81;;;26.36;41.78
41703;BME280;861;48.808;9.006;2022-08-11T08:55:06;97514.06;;;26.50;40.49
41703;BME280;861;48.808;9.006;2022-08-11T08:57:44;97516.38;;;26.51;40.66
41703;BME280;861;48.808;9.006;2022-08-11T09:00:16;97514.03;;;26.73;40.09
41703;BME280;861;48.808;9.006;2022-08-11T09:02:45;97516.66;;;26.91;39.54
41703;BME280;861;48.808;9.006;2022-08-11T09:05:17;97514.31;;;26.90;39.92
41703;BME280;861;48.808;9.006;2022-08-11T09:07:49;97519.31;;;26.86;39.48
41703;BME280;861;48.808;9.006;2022-08-11T09:10:21;97519.16;;;27.04;39.62
41703;BME280;861;48.808;9.006;2022-08-11T09:12:50;97513.22;;;27.31;38.94
41703;BME280;861;48.808;9.006;2022-08-11T09:15:18;97515.34;;;27.71;37.60
41703;BME280;861;48.808;9.006;2022-08-11T09:17:59;97522.38;;;27.46;38.26
41703;BME280;861;48.808;9.006;2022-08-11T09:20:38;97523.63;;;27.45;37.61
41703;BME280;861;48.808;9.006;2022-08-11T09:23:09;97517.03;;;27.63;38.43
41703;BME280;861;48.808;9.006;2022-08-11T09:26:00;97523.91;;;27.82;37.68
41703;BME280;861;48.808;9.006;2022-08-11T09:28:47;97509.63;;;28.14;37.20
41703;BME280;861;48.808;9.006;2022-08-11T09:31:17;97516.09;;;28.26;37.69
41703;BME280;861;48.808;9.006;2022-08-11T09:33:47;97521.50;;;28.29;35.63
41703;BME280;861;48.808;9.006;2022-08-11T09:36:19;97519.19;;;28.48;36.46
41703;BME280;861;48.808;9.006;2022-08-11T09:39:07;97509.28;;;28.73;35.67
41703;BME280;861;48.808;9.006;2022-08-11T09:41:55;97513.25;;;28.92;35.02
41703;BME280;861;48.808;9.006;2022-08-11T09:44:24;97516.34;;;28.94;34.71
41703;BME280;861;48.808;9.006;2022-08-11T09:47:20;97499.28;;;28.97;34.74
41703;BME280;861;48.808;9.006;2022-08-11T09:50:00;97516.06;;;28.92;34.32
41703;BME280;861;48.808;9.006;2022-08-11T09:52:37;97514.84;;;28.98;33.96
41703;BME280;861;48.808;9.006;2022-08-11T09:55:07;97503.91;;;29.00;34.48
41703;BME280;861;48.808;9.006;2022-08-11T09:57:45;97505.00;;;29.39;34.33
41703;BME280;861;48.808;9.006;2022-08-11T10:00:36;97498.66;;;29.44;33.78
41703;BME280;861;48.808;9.006;2022-08-11T10:05:39;97493.22;;;29.66;32.87
41703;BME280;861;48.808;9.006;2022-08-11T10:08:32;97496.09;;;29.77;33.45
41703;BME280;861;48.808;9.006;2022-08-11T10:11:03;97489.47;;;29.75;32.60
41703;BME280;861;48.808;9.006;2022-08-11T10:13:40;97499.03;;;29.57;33.43
41703;BME280;861;48.808;9.006;2022-08-11T10:16:33;97497.38;;;29.76;33.87
41703;BME280;861;48.808;9.006;2022-08-11T10:19:05;97499.75;;;29.95;32.24
41703;BME280;861;48.808;9.006;2022-08-11T10:21:43;97504.16;;;30.07;31.57
41703;BME280;861;48.808;9.006;2022-08-11T10:24:37;97494.03;;;30.26;32.32
41703;BME280;861;48.808;9.006;2022-08-11T10:27:27;97491.28;;;30.42;32.67
41703;BME280;861;48.808;9.006;2022-08-11T10:29:55;97491.31;;;30.53;31.18
41703;BME280;861;48.808;9.006;2022-08-11T10:32:41;97490.06;;;30.71;30.69
41703;BME280;861;48.808;9.006;2022-08-11T10:35:31;97490.84;;;30.71;31.22
41703;BME280;861;48.808;9.006;2022-08-11T10:38:02;97493.69;;;30.77;31.59
41703;BME280;861;48.808;9.006;2022-08-11T10:40:30;97482.94;;;30.81;31.25
41703;BME280;861;48.808;9.006;2022-08-11T10:43:01;97482.22;;;31.02;29.64
41703;BME280;861;48.808;9.006;2022-08-11T10:45:37;97477.09;;;31.06;30.74
41703;BME280;861;48.808;9.006;2022-08-11T10:48:28;97481.69;;;31.04;30.26
41703;BME280;861;48.808;9.006;2022-08-11T10:51:01;97477.59;;;30.99;31.57
41703;BME280;861;48.808;9.006;2022-08-11T10:53:51;97474.78;;;31.16;30.63
41703;BME280;861;48.808;9.006;2022-08-11T10:56:38;97476.81;;;31.38;30.75
41703;BME280;861;48.808;9.006;2022-08-11T10:59:28;97466.84;;;31.48;29.92
41703;BME280;861;48.808;9.006;2022-08-11T11:01:58;97463.00;;;31.51;28.72
41703;BME280;861;48.808;9.006;2022-08-11T11:05:08;97473.47;;;31.56;29.32
41703;BME280;861;48.808;9.006;2022-08-11T11:08:14;97456.09;;;31.52;29.48
41703;BME280;861;48.808;9.006;2022-08-11T11:11:29;97456.25;;;31.87;29.18
41703;BME280;861;48.808;9.006;2022-08-11T11:14:20;97446.47;;;32.04;29.32
41703;BME280;861;48.808;9.006;2022-08-11T11:17:12;97447.84;;;31.70;29.92
41703;BME280;861;48.808;9.006;2022-08-11T11:19:42;97437.22;;;32.09;29.36
41703;BME280;861;48.808;9.006;2022-08-11T11:22:13;97440.69;;;32.37;29.02
41703;BME280;861;48.808;9.006;2022-08-11T11:38:11;97426.81;;;33.10;27.99
41703;BME280;861;48.808;9.006;2022-08-11T11:40:41;97430.50;;;33.29;29.03
41703;BME280;861;48.808;9.006;2022-08-11T11:43:09;97419.78;;;33.51;28.85
41703;BME280;861;48.808;9.006;2022-08-11T11:45:40;97422.63;;;33.46;28.20
41703;BME280;861;48.808;9.006;2022-08-11T11:48:09;97418.72;;;33.54;27.99
41703;BME280;861;48.808;9.006;2022-08-11T11:50:44;97410.66;;;33.82;27.59
41703;BME280;861;48.808;9.006;2022-08-11T11:53:12;97412.44;;;33.85;27.22
41703;BME280;861;48.808;9.006;2022-08-11T11:55:41;97419.53;;;33.97;27.65
41703;BME280;861;48.808;9.006;2022-08-11T11:58:09;97416.69;;;33.73;27.67
41703;BME280;861;48.808;9.006;2022-08-11T12:00:57;97417.47;;;33.74;27.16
41703;BME280;861;48.808;9.006;2022-08-11T12:03:49;97416.69;;;33.73;27.35
41703;BME280;861;48.808;9.006;2022-08-11T12:06:22;97406.59;;;34.02;27.83
41703;BME280;861;48.808;9.006;2022-08-11T12:08:55;97398.81;;;34.27;27.85
41703;BME280;861;48.808;9.006;2022-08-11T12:11:27;97408.59;;;34.26;27.19
41703;BME280;861;48.808;9.006;2022-08-11T12:16:52;97396.22;;;34.47;27.07
41703;BME280;861;48.808;9.006;2022-08-11T12:19:25;97395.56;;;34.73;26.05
41703;BME280;861;48.808;9.006;2022-08-11T12:21:57;97407.41;;;34.90;27.11
41703;BME280;861;48.808;9.006;2022-08-11T12:24:45;97395.47;;;35.10;26.01
41703;BME280;861;48.808;9.006;2022-08-11T12:27:46;97391.53;;;35.00;26.36
41703;BME280;861;48.808;9.006;2022-08-11T12:30:13;97397.28;;;34.94;26.07
41703;BME280;861;48.808;9.006;2022-08-11T12:32:42;97384.75;;;34.90;26.25
41703;BME280;861;48.808;9.006;2022-08-11T12:35:10;97399.69;;;35.03;25.98
41703;BME280;861;48.808;9.006;2022-08-11T12:37:54;97392.63;;;34.97;25.46
41703;BME280;861;48.808;9.006;2022-08-11T12:40:29;97390.22;;;35.01;25.71
41703;BME280;861;48.808;9.006;2022-08-11T12:43:20;97386.22;;;35.22;25.19
41703;BME280;861;48.808;9.006;2022-08-11T12:46:20;97385.19;;;35.38;25.94
41703;BME280;861;48.808;9.006;2022-08-11T12:48:57;97371.03;;;35.65;24.81
41703;BME280;861;48.808;9.006;2022-08-11T12:51:55;97370.03;;;35.36;25.14
41703;BME280;861;48.808;9.006;2022-08-11T12:57:36;97358.66;;;34.97;25.60
41703;BME280;861;48.808;9.006;2022-08-11T13:00:27;97363.00;;;35.24;25.64
41703;BME280;861;48.808;9.006;2022-08-11T13:03:19;97358.22;;;35.32;25.95
41703;BME280;861;48.808;9.006;2022-08-11T13:06:08;97351.19;;;35.52;26.28
41703;BME280;861;48.808;9.006;2022-08-11T13:08:39;97350.72;;;35.47;25.61
41703;BME280;861;48.808;9.006;2022-08-11T13:11:09;97341.81;;;35.43;25.08
41703;BME280;861;48.808;9.006;2022-08-11T13:13:56;97342.31;;;35.68;25.40
41703;BME280;861;48.808;9.006;2022-08-11T13:16:30;97333.50;;;35.72;25.09
41703;BME280;861;48.808;9.006;2022-08-11T13:19:20;97335.66;;;35.92;24.77
41703;BME280;861;48.808;9.006;2022-08-11T13:21:53;97337.13;;;35.85;25.21
41703;BME280;861;48.808;9.006;2022-08-11T13:24:23;97332.56;;;36.03;24.94
41703;BME280;861;48.808;9.006;2022-08-11T13:26:51;97331.78;;;36.15;23.87
41703;BME280;861;48.808;9.006;2022-08-11T13:29:25;97330.34;;;35.62;25.12
41703;BME280;861;48.808;9.006;2022-08-11T13:31:57;97333.50;;;35.85;24.97
41703;BME280;861;48.808;9.006;2022-08-11T13:34:29;97333.94;;;35.89;24.65
41703;BME280;861;48.808;9.006;2022-08-11T13:37:01;97337.53;;;35.89;24.09
41703;BME280;861;48.808;9.006;2022-08-11T13:39:34;97339.94;;;35.85;24.36
41703;BME280;861;48.808;9.006;2022-08-11T13:42:04;97327.19;;;35.79;24.60
41703;BME280;861;48.808;9.006;2022-08-11T13:44:35;97323.09;;;36.00;23.82
41703;BME280;861;48.808;9.006;2022-08-11T13:47:09;97327.94;;;36.26;23.97
41703;BME280;861;48.808;9.006;2022-08-11T13:49:40;97329.38;;;36.53;23.89
41703;BME280;861;48.808;9.006;2022-08-11T13:52:16;97320.84;;;36.73;23.55
41703;BME280;861;48.808;9.006;2022-08-11T13:54:49;97313.72;;;36.80;23.13
41703;BME280;861;48.808;9.006;2022-08-11T13:57:19;97314.63;;;36.75;23.90
41703;BME280;861;48.808;9.006;2022-08-11T13:59:53;97311.25;;;36.76;23.04
41703;BME280;861;48.808;9.006;2022-08-11T14:02:27;97313.72;;;36.59;24.01
41703;BME280;861;48.808;9.006;2022-08-11T14:05:16;97317.69;;;36.77;23.28
41703;BME280;861;48.808;9.006;2022-08-11T14:07:54;97305.34;;;36.74;23.06
41703;BME280;861;48.808;9.006;2022-08-11T14:10:31;97295.38;;;36.40;23.25
41703;BME280;861;48.808;9.006;2022-08-11T14:13:08;97296.59;;;36.31;23.90
41703;BME280;861;48.808;9.006;2022-08-11T14:16:05;97289.81;;;36.34;23.25
41703;BME280;861;48.808;9.006;2022-08-11T14:18:44;97299.72;;;36.41;23.89
41703;BME280;861;48.808;9.006;2022-08-11T14:21:17;97297.66;;;36.62;23.38
41703;BME280;861;48.808;9.006;2022-08-11T14:24:08;97290.44;;;36.61;22.90
41703;BME280;861;48.808;9.006;2022-08-11T14:26:40;97289.50;;;36.58;23.20
41703;BME280;861;48.808;9.006;2022-08-11T14:29:17;97289.56;;;36.86;22.77
41703;BME280;861;48.808;9.006;2022-08-11T14:31:57;97287.19;;;36.98;22.79
41703;BME280;861;48.808;9.006;2022-08-11T14:34:30;97275.53;;;37.09;22.53
41703;BME280;861;48.808;9.006;2022-08-11T14:37:28;97285.19;;;36.85;22.30
41703;BME280;861;48.808;9.006;2022-08-11T14:39:59;97286.66;;;36.79;22.99
41703;BME280;861;48.808;9.006;2022-08-11T14:42:47;97269.41;;;37.05;22.34
41703;BME280;861;48.808;9.006;2022-08-11T14:45:33;97271.41;;;36.89;22.37
41703;BME280;861;48.808;9.006;2022-08-11T14:48:19;97277.06;;;36.89;22.71
41703;BME280;861;48.808;9.006;2022-08-11T14:50:46;97272.78;;;36.96;22.94
41703;BME280;861;48.808;9.006;2022-08-11T14:53:14;97270.41;;;37.08;22.17
41703;BME280;861;48.808;9.006;2022-08-11T14:55:44;97270.97;;;37.06;22.53
41703;BME280;861;48.808;9.006;2022-08-11T14:58:42;97258.88;;;37.13;23.16
41703;BME280;861;48.808;9.006;2022-08-11T15:01:10;97262.94;;;36.97;22.36
41703;BME280;861;48.808;9.006;2022-08-11T15:03:59;97264.53;;;37.13;22.10
41703;BME280;861;48.808;9.006;2022-08-11T15:06:27;97255.13;;;37.18;22.34
41703;BME280;861;48.808;9.006;2022-08-11T15:08:55;97252.19;;;37.03;21.84
41703;BME280;861;48.808;9.006;2022-08-11T15:11:30;97256.63;;;36.91;22.33
41703;BME280;861;48.808;9.006;2022-08-11T15:14:18;97244.47;;;36.83;22.09
41703;BME280;861;48.808;9.006;2022-08-11T15:17:08;97248.31;;;36.93;22.48
41703;BME280;861;48.808;9.006;2022-08-11T15:19:43;97251.47;;;36.82;22.42
41703;BME280;861;48.808;9.006;2022-08-11T15:22:30;97243.75;;;36.90;22.44
41703;BME280;861;48.808;9.006;2022-08-11T15:25:16;97240.38;;;36.92;22.79
41703;BME280;861;48.808;9.006;2022-08-11T15:27:49;97240.59;;;36.73;22.42
41703;BME280;861;48.808;9.006;2022-08-11T15:30:38;97239.75;;;36.85;22.84
41703;BME280;861;48.808;9.006;2022-08-11T15:33:27;97241.13;;;36.92;22.53
41703;BME280;861;48.808;9.006;2022-08-11T15:36:14;97229.19;;;36.86;22.56
41703;BME280;861;48.808;9.006;2022-08-11T15:39:48;97232.28;;;36.75;22.43
41703;BME280;861;48.808;9.006;2022-08-11T15:42:56;97224.81;;;36.64;22.87
41703;BME280;861;48.808;9.006;2022-08-11T15:45:51;97223.66;;;36.60;22.85
41703;BME280;861;48.808;9.006;2022-08-11T15:48:36;97213.44;;;36.64;22.73
41703;BME280;861;48.808;9.006;2022-08-11T15:51:19;97215.91;;;36.60;22.44
41703;BME280;861;48.808;9.006;2022-08-11T15:54:10;97220.81;;;36.39;22.24
41703;BME280;861;48.808;9.006;2022-08-11T15:56:47;97212.47;;;36.34;22.75
41703;BME280;861;48.808;9.006;2022-08-11T15:59:19;97212.03;;;36.50;22.72
41703;BME280;861;48.808;9.006;2022-08-11T16:02:13;97211.16;;;36.83;22.51
41703;BME280;861;48.808;9.006;2022-08-11T16:05:07;97206.75;;;37.03;22.06
41703;BME280;861;48.808;9.006;2022-08-11T16:07:41;97206.38;;;36.78;22.25
41703;BME280;861;48.808;9.006;2022-08-11T16:10:17;97206.78;;;36.34;22.46
41703;BME280;861;48.808;9.006;2022-08-11T16:13:02;97207.22;;;36.04;22.83
41703;BME280;861;48.808;9.006;2022-08-11T16:15:35;97214.31;;;35.77;23.14
41703;BME280;861;48.808;9.006;2022-08-11T16:18:32;97218.56;;;35.84;22.86
41703;BME280;861;48.808;9.006;2022-08-11T16:21:26;97209.88;;;35.69;23.25
41703;BME280;861;48.808;9.006;2022-08-11T16:24:03;97207.06;;;35.56;23.47
41703;BME280;861;48.808;9.006;2022-08-11T16:26:38;97211.25;;;35.28;23.18
41703;BME280;861;48.808;9.006;2022-08-11T16:29:09;97206.47;;;35.36;23.45
41703;BME280;861;48.808;9.006;2022-08-11T16:31:40;97201.66;;;35.44;23.30
41703;BME280;861;48.808;9.006;2022-08-11T16:34:12;97201.91;;;35.20;23.29
41703;BME280;861;48.808;9.006;2022-08-11T16:36:59;97199.63;;;35.06;23.97
41703;BME280;861;48.808;9.006;2022-08-11T16:39:47;97191.03;;;34.98;23.73
41703;BME280;861;48.808;9.006;2022-08-11T16:42:15;97197.66;;;34.88;23.92
41703;BME280;861;48.808;9.006;2022-08-11T16:45:01;97194.94;;;34.82;23.70
41703;BME280;861;48.808;9.006;2022-08-11T16:47:51;97187.56;;;34.35;24.18
41703;BME280;861;48.808;9.006;2022-08-11T16:50:19;97197.41;;;34.47;24.38
41703;BME280;861;48.808;9.006;2022-08-11T16:52:46;97191.47;;;34.32;24.44
41703;BME280;861;48.808;9.006;2022-08-11T16:55:13;97190.50;;;34.29;24.40
41703;BME280;861;48.808;9.006;2022-08-11T16:57:41;97186.69;;;34.27;24.49
41703;BME280;861;48.808;9.006;2022-08-11T17:00:29;97195.78;;;34.06;23.98
41703;BME280;861;48.808;9.006;2022-08-11T17:03:01;97191.06;;;33.96;24.09
41703;BME280;861;48.808;9.006;2022-08-11T17:05:53;97192.41;;;34.08;24.16
41703;BME280;861;48.808;9.006;2022-08-11T17:08:52;97190.75;;;33.99;24.34
41703;BME280;861;48.808;9.006;2022-08-11T17:11:52;97187.25;;;33.93;24.78
41703;BME280;861;48.808;9.006;2022-08-11T17:14:49;97193.50;;;33.86;24.99
41703;BME280;861;48.808;9.006;2022-08-11T17:17:32;97185.22;;;33.75;24.90
41703;BME280;861;48.808;9.006;2022-08-11T17:20:08;97186.13;;;33.65;24.93
41703;BME280;861;48.808;9.006;2022-08-11T17:22:41;97184.47;;;33.56;24.53
41703;BME280;861;48.808;9.006;2022-08-11T17:25:29;97185.28;;;33.33;25.08
41703;BME280;861;48.808;9.006;2022-08-11T17:28:00;97178.03;;;32.76;25.14
41703;BME280;861;48.808;9.006;2022-08-11T17:30:32;97178.31;;;32.48;25.70
41703;BME280;861;48.808;9.006;2022-08-11T17:33:35;97174.81;;;32.42;25.51
41703;BME280;861;48.808;9.006;2022-08-11T17:36:23;97173.41;;;32.25;25.81
41703;BME280;861;48.808;9.006;2022-08-11T17:38:51;97174.81;;;32.13;25.92
41703;BME280;861;48.808;9.006;2022-08-11T17:41:21;97183.63;;;31.98;26.87
41703;BME280;861;48.808;9.006;2022-08-11T17:44:07;97172.72;;;31.89;26.55
41703;BME280;861;48.808;9.006;2022-08-11T17:46:54;97167.75;;;31.66;26.71
41703;BME280;861;48.808;9.006;2022-08-11T17:49:41;97174.25;;;31.50;27.03
41703;BME280;861;48.808;9.006;2022-08-11T17:52:10;97170.41;;;31.47;26.88
41703;BME280;861;48.808;9.006;2022-08-11T17:54:58;97185.06;;;31.35;27.04